DTMB/MIR METAR and TAF weather

Enter ICAO airport designator
Station Type Date Time Source
DTMB METAR 2018/12/10 19:30 UTC NOAA

DTMB 101930Z 31013KT 280V340 9999 FEW040 16/07 Q1022 NOSIG


Station Type Date Time Source
DTMB Decoded METAR 2018/12/10 19:30 UTC NOAA

Habib Bourguiba , Tunisia (DTMB) 35-46N 010-45E
Dec 10, 2018 - 02:30 PM EST / 2018.12.10 1930 UTC
Wind: from the NW (310 degrees) at 15 MPH (13 KT) (direction variable):0
Visibility: greater than 7 mile(s):0
Sky conditions: mostly clear
Temperature: 60 F (16 C)
Dew Point: 44 F (7 C)
Relative Humidity: 55%
Pressure (altimeter): 30.18 in. Hg (1022 hPa)
ob: DTMB 101930Z 31013KT 280V340 9999 FEW040 16/07 Q1022 NOSIG
cycle: 19

Station Type Date Time Source
DTMB TAF 2018/12/10 18:42 UTC NOAA

TAF TAF DTMB 101740Z 1018/1118 29017G27KT 9999 FEW033
BECMG 1100/1102 27012KT


Example: see airport list